Diane H — WUR7250 — position and weather

sailwx.info

Track history (hours):
 
Tides and Currents Weather Stations Pressure Air Temp Water Temp Dewpoint Dewpoint Depression Visibility Wind Speed Wind Dir Waves Ship Positions

Diane H

Owner: BOYER TOWING INC, KETCHIKAN, AK. More information available from US FCC via Universal Licensing System and Coast Guard Vessel Documentation Center.

Last reported at 2015-Mar-23 14:39 UTC. Time now 2015-Mar-26 23:52 UTC.
Position N 47°32' W 122°20'.

Type: Towing. MMSI: 366673090.

Date/timePositionNaut miles runAvg speedWind from/ knotsBaromVisibWave heightAir tempDewpointWater temp
2015-Mar-23 14:39N 47°32' W 122°20'0 0.0
2015-Mar-23 14:33N 47°32' W 122°20'0 0.0
2015-Mar-23 14:24N 47°32' W 122°20'2 0.1
2015-Mar-22 22:19N 47°34' W 122°21'0 6.6
2015-Mar-22 22:16N 47°34' W 122°21'3 4.7
2015-Mar-22 21:33N 47°33' W 122°26'0 8.2
2015-Mar-22 21:31N 47°33' W 122°25'9 9.1
2015-Mar-22 20:33N 47°24' W 122°22'7 7.5
2015-Mar-22 19:33N 47°18' W 122°26'1 1.1
2015-Mar-22 18:15N 47°17' W 122°24'0 0.2
2015-Mar-22 16:09N 47°17' W 122°25'1 0.8
2015-Mar-22 15:28N 47°17' W 122°26'1 0.9
2015-Mar-22 14:33N 47°18' W 122°27'3 2.8
2015-Mar-22 13:25N 47°19' W 122°31'2 2.7
2015-Mar-22 12:33N 47°21' W 122°32'3 3.2
2015-Mar-22 11:33N 47°25' W 122°32'0 3.1
2015-Mar-22 11:30N 47°25' W 122°32'3 3.3
2015-Mar-22 10:32N 47°28' W 122°31'1 3.0
2015-Mar-22 10:14N 47°29' W 122°30'2 3.0
2015-Mar-22 09:33N 47°31' W 122°29'0 3.3
2015-Mar-22 09:28N 47°31' W 122°29'3 3.5
2015-Mar-22 08:34N 47°34' W 122°28'0 4.0
2015-Mar-22 08:28N 47°34' W 122°28'3 3.4
2015-Mar-22 07:33N 47°37' W 122°28'0 2.9
2015-Mar-22 07:23N 47°38' W 122°29'3 2.9
2015-Mar-22 06:31N 47°40' W 122°29'1 2.5
2015-Mar-22 06:19N 47°41' W 122°28'1 2.8
2015-Mar-22 06:04N 47°42' W 122°28'1 2.7
2015-Mar-22 05:32N 47°43' W 122°28'3 2.6
2015-Mar-22 04:32N 47°46' W 122°27'3 2.9
2015-Mar-22 03:34N 47°48' W 122°28'0 9.0
2015-Mar-22 03:33N 47°48' W 122°28'0 3.0
2015-Mar-22 03:28N 47°49' W 122°28'3 3.8
2015-Mar-22 02:34N 47°52' W 122°29'0 8.1
2015-Mar-22 02:33N 47°52' W 122°29'3 3.5
2015-Mar-22 01:33N 47°55' W 122°31'1 5.6
2015-Mar-22 01:23N 47°56' W 122°32'4 4.3
2015-Mar-22 00:33N 47°57' W 122°38'3 3.6
2015-Mar-21 23:51N 47°54' W 122°37'1 3.4
2015-Mar-21 23:34N 47°53' W 122°36'1 3.8
2015-Mar-21 23:21N 47°53' W 122°36'3 2.9
2015-Mar-21 22:28N 47°50' W 122°39'2 2.2
2015-Mar-21 21:31N 47°49' W 122°41'0 2.0
2015-Mar-21 21:22N 47°49' W 122°41'2 2.8
2015-Mar-21 20:32N 47°47' W 122°43'0 3.9
2015-Mar-21 20:31N 47°47' W 122°43'0 0.2
2015-Mar-21 19:29N 47°47' W 122°43'4 3.9
2015-Mar-21 18:33N 47°49' W 122°40'7 6.4
2015-Mar-21 17:32N 47°56' W 122°38'4 7.5
2015-Mar-21 17:01N 47°56' W 122°32'4 9.4
2015-Mar-21 16:33N 47°53' W 122°28'0 9.8
2015-Mar-21 16:31N 47°53' W 122°28'1010.2
2015-Mar-21 15:33N 47°43' W 122°26'0 9.5
2015-Mar-21 15:31N 47°43' W 122°26'9 9.0
2015-Mar-21 14:33N 47°35' W 122°22'0 6.3
2015-Mar-21 14:30N 47°34' W 122°21'2 2.4
2015-Mar-21 13:31N 47°32' W 122°20'  
2015-Mar-19 06:20N 47°32' W 122°20'0 0.5
2015-Mar-19 05:33N 47°33' W 122°20'0 0.0
2015-Mar-19 05:33N 47°33' W 122°20'6 6.2
2015-Mar-19 04:34N 47°37' W 122°26'1 7.6
2015-Mar-19 04:29N 47°38' W 122°26'6 6.9
2015-Mar-19 03:34N 47°44' W 122°27'1 6.9
2015-Mar-19 03:29N 47°45' W 122°27'7 7.3
2015-Mar-19 02:34N 47°51' W 122°30'4 5.9
2015-Mar-19 01:48N 47°55' W 122°33'1 5.8
2015-Mar-19 01:33N 47°56' W 122°34'12 5.5
2015-Mar-18 23:24N 48°06' W 122°43'8 4.6
2015-Mar-18 21:32N 47°59' W 122°38'5 8.9
2015-Mar-18 20:58N 47°55' W 122°32'4 9.4
2015-Mar-18 20:33N 47°52' W 122°30'110.2
2015-Mar-18 20:28N 47°51' W 122°29'910.2
2015-Mar-18 19:33N 47°42' W 122°27'210.0
2015-Mar-18 19:22N 47°40' W 122°27'8 9.5
2015-Mar-18 18:33N 47°34' W 122°21'1 8.4
2015-Mar-18 18:26N 47°33' W 122°20'0 0.5
2015-Mar-18 17:31N 47°32' W 122°20'0 0.0
2015-Mar-17 20:12N 47°32' W 122°20'0 0.1
2015-Mar-17 20:06N 47°32' W 122°20'0 0.1
2015-Mar-17 19:33N 47°32' W 122°20'0 0.0
2015-Mar-17 19:30N 47°32' W 122°20'4 3.7
2015-Mar-17 18:31N 47°36' W 122°22'0 2.7
2015-Mar-17 18:26N 47°36' W 122°22'6 7.2
2015-Mar-17 17:33N 47°34' W 122°31'0 7.0
2015-Mar-17 17:30N 47°34' W 122°32'4 4.5
2015-Mar-17 16:33N 47°33' W 122°38'0 4.7
2015-Mar-17 16:29N 47°33' W 122°38'1 0.6
2015-Mar-17 15:34N 47°33' W 122°39'0 6.5
2015-Mar-17 15:29N 47°33' W 122°39'7 7.3
2015-Mar-17 14:33N 47°35' W 122°29'1 8.8
2015-Mar-17 14:29N 47°35' W 122°28'6 6.3
2015-Mar-17 13:32N 47°32' W 122°20'  
Track history (hours):
 
Tides and Currents Weather Stations Pressure Air Temp Water Temp Dewpoint Dewpoint Depression Visibility Wind Speed Wind Dir Waves Ship Positions

Diane H

Owner: BOYER TOWING INC, KETCHIKAN, AK. More information available from US FCC via Universal Licensing System and Coast Guard Vessel Documentation Center.

Last reported at 2015-Mar-23 14:39 UTC. Time now 2015-Mar-26 23:52 UTC.
Position N 47°32' W 122°20'.

Type: Towing. MMSI: 366673090.

Date/timePositionNaut miles runAvg speedWind from/ knotsBaromVisibWave heightAir tempDewpointWater temp
2015-Mar-23 14:39N 47°32' W 122°20'0 0.0
2015-Mar-23 14:33N 47°32' W 122°20'0 0.0
2015-Mar-23 14:24N 47°32' W 122°20'2 0.1
2015-Mar-22 22:19N 47°34' W 122°21'0 6.6
2015-Mar-22 22:16N 47°34' W 122°21'3 4.7
2015-Mar-22 21:33N 47°33' W 122°26'0 8.2
2015-Mar-22 21:31N 47°33' W 122°25'9 9.1
2015-Mar-22 20:33N 47°24' W 122°22'7 7.5
2015-Mar-22 19:33N 47°18' W 122°26'1 1.1
2015-Mar-22 18:15N 47°17' W 122°24'0 0.2
2015-Mar-22 16:09N 47°17' W 122°25'1 0.8
2015-Mar-22 15:28N 47°17' W 122°26'1 0.9
2015-Mar-22 14:33N 47°18' W 122°27'3 2.8
2015-Mar-22 13:25N 47°19' W 122°31'2 2.7
2015-Mar-22 12:33N 47°21' W 122°32'3 3.2
2015-Mar-22 11:33N 47°25' W 122°32'0 3.1
2015-Mar-22 11:30N 47°25' W 122°32'3 3.3
2015-Mar-22 10:32N 47°28' W 122°31'1 3.0
2015-Mar-22 10:14N 47°29' W 122°30'2 3.0
2015-Mar-22 09:33N 47°31' W 122°29'0 3.3
2015-Mar-22 09:28N 47°31' W 122°29'3 3.5
2015-Mar-22 08:34N 47°34' W 122°28'0 4.0
2015-Mar-22 08:28N 47°34' W 122°28'3 3.4
2015-Mar-22 07:33N 47°37' W 122°28'0 2.9
2015-Mar-22 07:23N 47°38' W 122°29'3 2.9
2015-Mar-22 06:31N 47°40' W 122°29'1 2.5
2015-Mar-22 06:19N 47°41' W 122°28'1 2.8
2015-Mar-22 06:04N 47°42' W 122°28'1 2.7
2015-Mar-22 05:32N 47°43' W 122°28'3 2.6
2015-Mar-22 04:32N 47°46' W 122°27'3 2.9
2015-Mar-22 03:34N 47°48' W 122°28'0 9.0
2015-Mar-22 03:33N 47°48' W 122°28'0 3.0
2015-Mar-22 03:28N 47°49' W 122°28'3 3.8
2015-Mar-22 02:34N 47°52' W 122°29'0 8.1
2015-Mar-22 02:33N 47°52' W 122°29'3 3.5
2015-Mar-22 01:33N 47°55' W 122°31'1 5.6
2015-Mar-22 01:23N 47°56' W 122°32'4 4.3
2015-Mar-22 00:33N 47°57' W 122°38'3 3.6
2015-Mar-21 23:51N 47°54' W 122°37'1 3.4
2015-Mar-21 23:34N 47°53' W 122°36'1 3.8
2015-Mar-21 23:21N 47°53' W 122°36'3 2.9
2015-Mar-21 22:28N 47°50' W 122°39'2 2.2
2015-Mar-21 21:31N 47°49' W 122°41'0 2.0
2015-Mar-21 21:22N 47°49' W 122°41'2 2.8
2015-Mar-21 20:32N 47°47' W 122°43'0 3.9
2015-Mar-21 20:31N 47°47' W 122°43'0 0.2
2015-Mar-21 19:29N 47°47' W 122°43'4 3.9
2015-Mar-21 18:33N 47°49' W 122°40'7 6.4
2015-Mar-21 17:32N 47°56' W 122°38'4 7.5
2015-Mar-21 17:01N 47°56' W 122°32'4 9.4
2015-Mar-21 16:33N 47°53' W 122°28'0 9.8
2015-Mar-21 16:31N 47°53' W 122°28'1010.2
2015-Mar-21 15:33N 47°43' W 122°26'0 9.5
2015-Mar-21 15:31N 47°43' W 122°26'9 9.0
2015-Mar-21 14:33N 47°35' W 122°22'0 6.3
2015-Mar-21 14:30N 47°34' W 122°21'2 2.4
2015-Mar-21 13:31N 47°32' W 122°20'  
2015-Mar-19 06:20N 47°32' W 122°20'0 0.5
2015-Mar-19 05:33N 47°33' W 122°20'0 0.0
2015-Mar-19 05:33N 47°33' W 122°20'6 6.2
2015-Mar-19 04:34N 47°37' W 122°26'1 7.6
2015-Mar-19 04:29N 47°38' W 122°26'6 6.9
2015-Mar-19 03:34N 47°44' W 122°27'1 6.9
2015-Mar-19 03:29N 47°45' W 122°27'7 7.3
2015-Mar-19 02:34N 47°51' W 122°30'4 5.9
2015-Mar-19 01:48N 47°55' W 122°33'1 5.8
2015-Mar-19 01:33N 47°56' W 122°34'12 5.5
2015-Mar-18 23:24N 48°06' W 122°43'8 4.6
2015-Mar-18 21:32N 47°59' W 122°38'5 8.9
2015-Mar-18 20:58N 47°55' W 122°32'4 9.4
2015-Mar-18 20:33N 47°52' W 122°30'110.2
2015-Mar-18 20:28N 47°51' W 122°29'910.2
2015-Mar-18 19:33N 47°42' W 122°27'210.0
2015-Mar-18 19:22N 47°40' W 122°27'8 9.5
2015-Mar-18 18:33N 47°34' W 122°21'1 8.4
2015-Mar-18 18:26N 47°33' W 122°20'0 0.5
2015-Mar-18 17:31N 47°32' W 122°20'0 0.0
2015-Mar-17 20:12N 47°32' W 122°20'0 0.1
2015-Mar-17 20:06N 47°32' W 122°20'0 0.1
2015-Mar-17 19:33N 47°32' W 122°20'0 0.0
2015-Mar-17 19:30N 47°32' W 122°20'4 3.7
2015-Mar-17 18:31N 47°36' W 122°22'0 2.7
2015-Mar-17 18:26N 47°36' W 122°22'6 7.2
2015-Mar-17 17:33N 47°34' W 122°31'0 7.0
2015-Mar-17 17:30N 47°34' W 122°32'4 4.5
2015-Mar-17 16:33N 47°33' W 122°38'0 4.7
2015-Mar-17 16:29N 47°33' W 122°38'1 0.6
2015-Mar-17 15:34N 47°33' W 122°39'0 6.5
2015-Mar-17 15:29N 47°33' W 122°39'7 7.3
2015-Mar-17 14:33N 47°35' W 122°29'1 8.8
2015-Mar-17 14:29N 47°35' W 122°28'6 6.3
2015-Mar-17 13:32N 47°32' W 122°20'  

Dump ship's entire track history